Time;durP1;ratioP1;P1;durP2;ratioP2;P2;SDS_P1;SDS_P2;PMS_P1;PMS_P2;Temp;Humidity;BMP_temperature;BMP_pressure;BME280_temperature;BME280_humidity;BME280_pressure;Samples;Min_cycle;Max_cycle;Signal;HPM_P1;HPM_P2
2021/12/13 00:01:02;;;;;;;;;;;4.10;99.90;;;;;;4995509;28;19910;-75
2021/12/13 00:03:28;;;;;;;;;;;4.10;99.90;;;;;;4994955;28;19912;-75
2021/12/13 00:05:57;;;;;;;;;;;4.00;99.90;;;;;;4994778;28;19909;-76
2021/12/13 00:08:33;;;;;;;;;;;4.00;99.90;;;;;;4994784;28;19940;-76
2021/12/13 00:11:10;;;;;;;;;;;4.00;99.90;;;;;;4994843;28;19917;-75
2021/12/13 00:13:46;;;;;;;;;;;4.00;99.90;;;;;;4994852;28;19905;-76
2021/12/13 00:16:12;;;;;;;;;;;4.00;99.90;;;;;;4994595;28;19909;-75
2021/12/13 00:18:40;;;;;;;;;;;4.00;99.90;;;;;;4994832;28;19906;-76
2021/12/13 00:21:08;;;;;;;;;;;4.00;99.90;;;;;;4994547;28;19913;-76
2021/12/13 00:23:37;;;;;;;;;;;4.00;99.90;;;;;;4993401;28;19964;-75
2021/12/13 00:26:04;;;;;;;;;;;4.00;99.90;;;;;;4994292;28;19968;-76
2021/12/13 00:28:38;;;;;;;;;;;3.90;99.90;;;;;;4994470;28;19906;-76
2021/12/13 00:31:06;;;;;;;;;;;3.90;99.90;;;;;;4994453;28;19909;-76
2021/12/13 00:33:45;;;;;;;;;;;3.80;99.90;;;;;;4994454;28;19906;-76
2021/12/13 00:36:24;;;;;;;;;;;3.90;99.90;;;;;;4994066;28;20258;-76
2021/12/13 00:38:53;;;;;;;;;;;3.90;99.90;;;;;;4994359;28;19912;-75
2021/12/13 00:41:22;;;;;;;;;;;3.90;99.90;;;;;;4994233;28;19906;-76
2021/12/13 00:44:00;;;;;;;;;;;4.00;99.90;;;;;;4994095;28;19905;-75
2021/12/13 00:46:27;;;;;;;;;;;4.10;99.90;;;;;;4993319;28;19914;-75
2021/12/13 00:48:55;;;;;;;;;;;4.10;99.90;;;;;;4993982;28;20329;-76
2021/12/13 00:51:40;;;;;;;;;;;4.20;99.90;;;;;;4994028;28;20340;-76
2021/12/13 00:54:18;;;;;;;;;;;4.30;99.90;;;;;;4994129;28;19988;-75
2021/12/13 00:56:59;;;;;;;;;;;4.30;99.90;;;;;;4993822;28;19977;-76
2021/12/13 00:59:25;;;;;;;;;;;4.40;99.90;;;;;;4993871;28;19913;-75
2021/12/13 01:02:06;;;;;;;;;;;4.40;99.90;;;;;;4993833;28;20321;-76
2021/12/13 01:04:50;;;;;;;;;;;4.30;99.90;;;;;;4992568;28;19912;-76
2021/12/13 01:07:35;;;;;;;;;;;4.20;99.90;;;;;;4992364;28;19909;-76
2021/12/13 01:10:27;;;;;;;;;;;4.20;99.90;;;;;;4992639;28;19916;-75
2021/12/13 01:12:54;;;;;;;;;;;4.20;99.90;;;;;;4993638;28;20421;-76
2021/12/13 01:15:29;;;;;;;;;;;4.20;99.90;;;;;;4993588;28;19910;-76
2021/12/13 01:18:03;;;;;;;;;;;4.20;99.90;;;;;;4993597;28;20366;-76
2021/12/13 01:20:54;;;;;;;;;;;4.20;99.90;;;;;;4993533;28;19906;-76
2021/12/13 01:23:37;;;;;;;;;;;4.20;99.90;;;;;;4993570;28;20460;-76
2021/12/13 01:26:14;;;;;;;;;;;4.20;99.90;;;;;;4993357;28;20377;-76
2021/12/13 01:28:42;;;;;;;;;;;4.20;99.90;;;;;;4993442;28;19913;-76
2021/12/13 01:31:08;;;;;;;;;;;4.20;99.90;;;;;;4992234;28;19905;-74
2021/12/13 01:33:34;;;;;;;;;;;4.30;99.90;;;;;;4993472;28;19910;-74
2021/12/13 01:36:01;;;;;;;;;;;4.30;99.90;;;;;;4993079;28;19909;-74
2021/12/13 01:38:34;;;;;;;;;;;4.30;99.90;;;;;;4993303;28;19906;-74
2021/12/13 01:41:08;;;;;;;;;;;4.40;99.90;;;;;;4993261;28;19912;-74
2021/12/13 01:43:35;;;;;;;;;;;4.30;99.90;;;;;;4992115;28;20325;-74
2021/12/13 01:46:00;;;;;;;;;;;4.40;99.90;;;;;;4992980;28;19914;-76
2021/12/13 01:48:29;;;;;;;;;;;4.40;99.90;;;;;;4993042;28;19920;-76
2021/12/13 01:51:04;;;;;;;;;;;4.50;99.90;;;;;;4993000;28;20285;-76
2021/12/13 01:53:32;;;;;;;;;;;4.60;99.90;;;;;;4993187;28;19996;-74
2021/12/13 01:56:00;;;;;;;;;;;4.70;99.90;;;;;;4992749;28;19948;-74
2021/12/13 01:58:37;;;;;;;;;;;4.80;99.90;;;;;;4992982;28;19960;-75
2021/12/13 02:01:12;;;;;;;;;;;4.90;99.90;;;;;;4992922;28;19952;-74
2021/12/13 02:03:40;;;;;;;;;;;4.80;99.90;;;;;;4992988;28;19905;-74
2021/12/13 02:06:05;;;;;;;;;;;4.70;99.90;;;;;;4992825;28;20254;-74
2021/12/13 02:08:31;;;;;;;;;;;4.70;99.90;;;;;;4992975;28;19912;-74
2021/12/13 02:10:57;;;;;;;;;;;4.70;99.90;;;;;;4992951;28;19910;-74
2021/12/13 02:13:24;;;;;;;;;;;4.70;99.90;;;;;;4992890;28;19913;-74
2021/12/13 02:18:37;;;;;;;;;;;4.60;99.90;;;;;;4992900;28;19910;-74
2021/12/13 02:21:10;;;;;;;;;;;4.50;99.90;;;;;;4992819;28;19905;-74
2021/12/13 02:23:39;;;;;;;;;;;4.40;99.90;;;;;;4991554;28;19913;-74
2021/12/13 02:26:04;;;;;;;;;;;4.40;99.90;;;;;;4992633;28;19916;-74
2021/12/13 02:28:33;;;;;;;;;;;4.40;99.90;;;;;;4992903;28;19988;-74
2021/12/13 02:30:59;;;;;;;;;;;4.30;99.90;;;;;;4992931;28;19917;-74
2021/12/13 02:33:29;;;;;;;;;;;4.30;99.90;;;;;;4992855;28;19906;-74
2021/12/13 02:35:58;;;;;;;;;;;4.20;99.90;;;;;;4992473;28;19913;-74
2021/12/13 02:38:25;;;;;;;;;;;4.10;99.90;;;;;;4991448;28;20284;-74
2021/12/13 02:40:51;;;;;;;;;;;4.00;99.90;;;;;;4992742;28;19915;-74
2021/12/13 02:43:20;;;;;;;;;;;4.00;99.90;;;;;;4992740;28;20000;-74
2021/12/13 02:45:48;;;;;;;;;;;4.00;99.90;;;;;;4992420;28;19997;-74
2021/12/13 02:48:34;;;;;;;;;;;4.10;99.90;;;;;;4992420;28;19924;-74
2021/12/13 02:51:21;;;;;;;;;;;4.10;99.90;;;;;;4981805;28;19905;-74
2021/12/13 02:53:58;;;;;;;;;;;4.10;99.90;;;;;;4992694;28;19905;-74
2021/12/13 02:56:27;;;;;;;;;;;4.00;99.90;;;;;;4992408;28;19910;-74
2021/12/13 02:58:53;;;;;;;;;;;4.00;99.90;;;;;;4992736;28;19932;-74
2021/12/13 03:01:22;;;;;;;;;;;3.90;99.90;;;;;;4990999;28;19941;-74
2021/12/13 03:03:51;;;;;;;;;;;3.90;99.90;;;;;;4992655;28;19956;-74
2021/12/13 03:06:19;;;;;;;;;;;3.90;99.90;;;;;;4992396;28;19972;-74
2021/12/13 03:09:14;;;;;;;;;;;3.90;99.90;;;;;;4994112;28;19945;-74
2021/12/13 03:11:40;;;;;;;;;;;3.90;99.90;;;;;;4983041;28;19909;-74
2021/12/13 03:14:22;;;;;;;;;;;3.90;99.90;;;;;;4995967;28;19912;-74
2021/12/13 03:16:48;;;;;;;;;;;3.90;99.90;;;;;;4995713;28;19908;-75
2021/12/13 03:19:32;;;;;;;;;;;4.00;99.90;;;;;;4995939;28;19909;-74
2021/12/13 03:22:17;;;;;;;;;;;4.00;99.90;;;;;;4994412;28;19968;-75
2021/12/13 03:24:50;;;;;;;;;;;3.90;99.90;;;;;;4994409;28;20317;-75
2021/12/13 03:27:25;;;;;;;;;;;3.90;99.90;;;;;;4995514;28;19910;-74
2021/12/13 03:29:57;;;;;;;;;;;3.90;99.90;;;;;;4995664;28;19912;-74
2021/12/13 03:32:23;;;;;;;;;;;4.00;99.90;;;;;;4995614;28;19913;-74
2021/12/13 03:35:01;;;;;;;;;;;4.10;99.90;;;;;;4994192;28;19905;-74
2021/12/13 03:37:26;;;;;;;;;;;4.20;99.90;;;;;;4994085;28;19905;-74
2021/12/13 03:39:54;;;;;;;;;;;4.20;99.90;;;;;;4995478;28;19913;-74
2021/12/13 03:42:22;;;;;;;;;;;4.20;99.90;;;;;;4995476;28;20016;-74
2021/12/13 03:44:49;;;;;;;;;;;4.20;99.90;;;;;;4995383;28;19906;-75
2021/12/13 03:50:08;;;;;;;;;;;;;;;;;;;;;
2021/12/13 03:53:18;;;;;;;;;;;4.20;99.90;;;;;;5082494;28;19964;-96
2021/12/13 03:56:01;;;;;;;;;;;4.20;99.90;;;;;;5061381;28;19901;-96
2021/12/13 03:58:35;;;;;;;;;;;4.30;99.90;;;;;;5061021;28;19940;-95
2021/12/13 04:01:21;;;;;;;;;;;4.40;99.90;;;;;;5075516;28;20107;-96
2021/12/13 04:03:54;;;;;;;;;;;4.50;99.90;;;;;;5060561;28;19911;-95
2021/12/13 04:06:22;;;;;;;;;;;4.40;99.90;;;;;;5060936;28;19921;-95
2021/12/13 04:09:07;;;;;;;;;;;4.30;99.90;;;;;;5077402;28;19924;-95
2021/12/13 04:15:29;;;;;;;;;;;4.30;99.90;;;;;;5077723;28;19909;-95
2021/12/13 04:20:29;;;;;;;;;;;4.40;99.90;;;;;;5032408;28;20261;-74
2021/12/13 04:22:57;;;;;;;;;;;4.40;99.90;;;;;;5032821;28;19905;-76
2021/12/13 04:25:25;;;;;;;;;;;4.40;99.90;;;;;;5032557;28;20407;-76
2021/12/13 04:28:00;;;;;;;;;;;4.40;99.90;;;;;;5032670;28;19905;-76
2021/12/13 04:30:28;;;;;;;;;;;4.30;99.90;;;;;;5032767;28;20011;-75
2021/12/13 04:32:59;;;;;;;;;;;4.30;99.90;;;;;;5033871;28;20284;-75
2021/12/13 04:35:25;;;;;;;;;;;4.30;99.90;;;;;;5033570;28;19908;-75
2021/12/13 04:37:53;;;;;;;;;;;4.30;99.90;;;;;;5033625;28;19912;-75
2021/12/13 04:40:22;;;;;;;;;;;4.40;99.90;;;;;;5032349;28;20357;-75
2021/12/13 04:42:50;;;;;;;;;;;4.40;99.90;;;;;;5033565;28;19909;-75
2021/12/13 04:45:18;;;;;;;;;;;4.30;99.90;;;;;;5015797;28;19912;-75
2021/12/13 04:47:54;;;;;;;;;;;4.40;99.90;;;;;;5015647;28;19916;-75
2021/12/13 04:50:22;;;;;;;;;;;4.40;99.90;;;;;;5032266;28;19909;-75
2021/12/13 04:52:49;;;;;;;;;;;4.50;99.90;;;;;;5015719;28;19920;-75
2021/12/13 04:55:17;;;;;;;;;;;4.50;99.90;;;;;;5015505;28;19905;-75
2021/12/13 04:57:43;;;;;;;;;;;4.50;99.90;;;;;;5033145;28;20383;-75
2021/12/13 05:00:14;;;;;;;;;;;4.50;99.90;;;;;;5032043;28;19905;-76
2021/12/13 05:02:43;;;;;;;;;;;4.40;99.90;;;;;;5033743;28;19904;-74
2021/12/13 05:05:09;;;;;;;;;;;4.20;99.90;;;;;;5033192;28;19948;-74
2021/12/13 05:07:36;;;;;;;;;;;4.30;99.90;;;;;;5032856;28;19909;-74
2021/12/13 05:10:03;;;;;;;;;;;4.30;99.90;;;;;;5033088;28;19905;-74
2021/12/13 05:12:28;;;;;;;;;;;4.30;99.90;;;;;;5031699;28;19905;-74
2021/12/13 05:14:56;;;;;;;;;;;4.30;99.90;;;;;;5032938;28;20339;-74
2021/12/13 05:17:33;;;;;;;;;;;4.30;99.90;;;;;;5015023;28;19959;-74
2021/12/13 05:20:20;;;;;;;;;;;4.10;99.90;;;;;;5031741;28;19955;-74
2021/12/13 05:22:49;;;;;;;;;;;4.00;99.90;;;;;;5031696;28;19905;-74
2021/12/13 05:25:23;;;;;;;;;;;3.90;99.90;;;;;;5032920;28;19912;-74
2021/12/13 05:27:56;;;;;;;;;;;4.00;99.90;;;;;;5032662;28;19909;-74
2021/12/13 05:30:23;;;;;;;;;;;4.00;99.90;;;;;;5031186;28;19912;-74
2021/12/13 05:32:52;;;;;;;;;;;4.00;99.90;;;;;;5031429;28;20005;-74
2021/12/13 05:35:26;;;;;;;;;;;3.90;99.90;;;;;;5032908;28;19912;-74
2021/12/13 05:37:53;;;;;;;;;;;3.90;99.90;;;;;;5015008;28;20419;-74
2021/12/13 05:40:32;;;;;;;;;;;3.90;99.90;;;;;;5031349;28;20047;-74
2021/12/13 05:42:59;;;;;;;;;;;4.10;99.90;;;;;;5032683;28;19916;-74
2021/12/13 05:45:36;;;;;;;;;;;4.30;99.90;;;;;;5031017;28;19905;-74
2021/12/13 05:48:07;;;;;;;;;;;4.50;99.90;;;;;;5031378;28;20311;-74
2021/12/13 05:50:34;;;;;;;;;;;4.70;99.90;;;;;;5031017;28;19909;-74
2021/12/13 05:53:03;;;;;;;;;;;4.70;99.90;;;;;;5031330;28;20283;-74
2021/12/13 05:55:29;;;;;;;;;;;4.80;99.90;;;;;;5031035;28;19905;-74
2021/12/13 05:57:55;;;;;;;;;;;4.90;99.90;;;;;;5031033;28;19995;-74
2021/12/13 06:00:28;;;;;;;;;;;4.90;99.90;;;;;;5032371;28;19936;-74
2021/12/13 06:03:08;;;;;;;;;;;4.90;99.90;;;;;;5031072;28;19905;-74
2021/12/13 06:05:36;;;;;;;;;;;4.90;99.90;;;;;;5030727;28;20002;-74
2021/12/13 06:08:07;;;;;;;;;;;4.90;99.90;;;;;;5032591;28;19905;-76
2021/12/13 06:10:41;;;;;;;;;;;4.80;99.90;;;;;;5031110;28;19996;-76
2021/12/13 06:13:08;;;;;;;;;;;4.80;99.90;;;;;;5031078;28;20280;-76
2021/12/13 06:15:35;;;;;;;;;;;4.80;99.90;;;;;;5014430;28;19959;-76
2021/12/13 06:18:04;;;;;;;;;;;4.80;99.90;;;;;;5047374;28;19916;-76
2021/12/13 06:20:39;;;;;;;;;;;4.90;99.90;;;;;;5031180;28;19904;-76
2021/12/13 06:23:25;;;;;;;;;;;4.80;99.90;;;;;;5032191;28;19951;-76
2021/12/13 06:25:56;;;;;;;;;;;4.90;99.90;;;;;;5030149;28;19916;-76
2021/12/13 06:28:27;;;;;;;;;;;4.90;99.90;;;;;;5013588;28;20376;-76
2021/12/13 06:31:04;;;;;;;;;;;4.90;99.90;;;;;;5005664;28;19951;-76
2021/12/13 06:33:43;;;;;;;;;;;4.80;99.90;;;;;;5001113;28;20342;-76
2021/12/13 06:36:08;;;;;;;;;;;4.70;99.90;;;;;;5012193;28;20288;-76
2021/12/13 06:38:46;;;;;;;;;;;4.60;99.90;;;;;;5030855;28;19906;-76
2021/12/13 06:41:14;;;;;;;;;;;4.50;99.90;;;;;;5031715;28;19941;-76
2021/12/13 06:43:47;;;;;;;;;;;4.60;99.90;;;;;;5033793;28;19948;-76
2021/12/13 06:46:12;;;;;;;;;;;4.60;99.90;;;;;;5005165;28;19919;-76
2021/12/13 06:48:40;;;;;;;;;;;4.70;99.90;;;;;;5033200;28;20000;-76
2021/12/13 06:51:07;;;;;;;;;;;4.80;99.90;;;;;;5034476;28;19913;-76
2021/12/13 06:53:33;;;;;;;;;;;4.90;99.90;;;;;;5035590;28;19909;-76
2021/12/13 06:56:16;;;;;;;;;;;4.90;99.90;;;;;;5034215;28;19913;-76
2021/12/13 06:58:47;;;;;;;;;;;4.80;99.90;;;;;;5024716;28;19909;-76
2021/12/13 07:01:13;;;;;;;;;;;4.70;99.90;;;;;;5026746;28;19909;-76
2021/12/13 07:03:38;;;;;;;;;;;4.80;99.90;;;;;;5018886;28;19920;-76
2021/12/13 07:06:04;;;;;;;;;;;4.70;99.90;;;;;;5018201;28;20012;-76
2021/12/13 07:08:35;;;;;;;;;;;4.70;99.90;;;;;;5015056;28;19916;-76
2021/12/13 07:11:03;;;;;;;;;;;4.60;99.90;;;;;;4998057;28;20377;-76
2021/12/13 07:13:36;;;;;;;;;;;4.60;99.90;;;;;;5037195;28;20283;-77
2021/12/13 07:16:02;;;;;;;;;;;4.50;99.90;;;;;;5017474;28;19920;-76
2021/12/13 07:18:37;;;;;;;;;;;4.60;99.90;;;;;;5050618;28;19913;-76
2021/12/13 07:21:06;;;;;;;;;;;4.60;99.90;;;;;;5034881;28;20399;-76
2021/12/13 07:23:50;;;;;;;;;;;4.60;99.90;;;;;;5035343;28;19909;-76
2021/12/13 07:26:27;;;;;;;;;;;4.60;99.90;;;;;;5050298;28;19952;-76
2021/12/13 07:28:54;;;;;;;;;;;4.60;99.90;;;;;;5033852;28;19920;-76
2021/12/13 07:31:20;;;;;;;;;;;4.70;99.90;;;;;;5022523;28;19916;-76
2021/12/13 07:33:46;;;;;;;;;;;4.80;99.90;;;;;;5014207;28;19905;-76
2021/12/13 07:36:17;;;;;;;;;;;4.80;99.90;;;;;;5028305;28;20055;-76
2021/12/13 07:38:56;;;;;;;;;;;5.00;99.90;;;;;;5034888;28;20004;-76
2021/12/13 07:41:23;;;;;;;;;;;5.00;99.90;;;;;;5034664;28;19974;-76
2021/12/13 07:43:48;;;;;;;;;;;5.10;99.90;;;;;;5016818;28;20404;-76
2021/12/13 07:46:20;;;;;;;;;;;5.20;99.90;;;;;;5034601;28;19995;-76
2021/12/13 07:48:46;;;;;;;;;;;5.30;99.90;;;;;;5034693;28;20361;-76
2021/12/13 07:51:25;;;;;;;;;;;5.40;99.90;;;;;;5034554;28;19912;-76
2021/12/13 07:53:54;;;;;;;;;;;5.50;99.90;;;;;;5032586;28;19936;-76
2021/12/13 07:56:39;;;;;;;;;;;5.40;99.90;;;;;;5034389;28;19912;-76
2021/12/13 07:59:05;;;;;;;;;;;5.40;99.90;;;;;;5033072;28;19911;-76
2021/12/13 08:01:31;;;;;;;;;;;5.40;99.90;;;;;;5016467;28;20001;-76
2021/12/13 08:04:09;;;;;;;;;;;5.30;99.90;;;;;;5032599;28;20298;-76
2021/12/13 08:06:40;;;;;;;;;;;5.40;99.90;;;;;;5014230;28;20288;-76
2021/12/13 08:09:09;;;;;;;;;;;5.30;99.90;;;;;;5017443;28;19951;-76
2021/12/13 08:11:44;;;;;;;;;;;5.30;99.90;;;;;;5034187;28;19912;-76
2021/12/13 08:14:11;;;;;;;;;;;5.40;99.90;;;;;;5034322;28;19931;-76
2021/12/13 08:16:42;;;;;;;;;;;5.40;99.90;;;;;;5032798;28;20334;-76
2021/12/13 08:19:11;;;;;;;;;;;5.50;99.90;;;;;;5016185;28;20003;-76
2021/12/13 08:21:39;;;;;;;;;;;5.50;99.90;;;;;;5033734;28;20331;-76
2021/12/13 08:24:04;;;;;;;;;;;5.60;99.90;;;;;;5031976;28;19905;-76
2021/12/13 08:26:30;;;;;;;;;;;5.60;99.90;;;;;;5032376;28;19962;-76
2021/12/13 08:28:57;;;;;;;;;;;5.70;99.90;;;;;;5031619;28;20280;-76
2021/12/13 08:31:27;;;;;;;;;;;5.60;99.90;;;;;;5037069;28;19954;-76
2021/12/13 08:33:56;;;;;;;;;;;5.60;99.90;;;;;;5031656;28;19984;-76
2021/12/13 08:36:25;;;;;;;;;;;5.60;99.90;;;;;;5013339;28;19912;-76
2021/12/13 08:38:53;;;;;;;;;;;5.70;99.90;;;;;;5014303;28;19905;-76
2021/12/13 08:41:19;;;;;;;;;;;5.70;99.90;;;;;;5030192;28;20383;-76
2021/12/13 08:43:51;;;;;;;;;;;5.80;99.90;;;;;;5032369;28;19906;-76
2021/12/13 08:46:26;;;;;;;;;;;5.90;99.90;;;;;;5030484;28;19913;-76
2021/12/13 08:48:52;;;;;;;;;;;5.60;99.90;;;;;;5029657;28;19932;-76
2021/12/13 08:51:25;;;;;;;;;;;5.60;99.90;;;;;;5032087;28;19905;-76
2021/12/13 08:53:58;;;;;;;;;;;5.70;99.90;;;;;;5032618;28;19913;-76
2021/12/13 08:56:25;;;;;;;;;;;5.80;99.90;;;;;;5031520;28;19905;-76
2021/12/13 08:58:59;;;;;;;;;;;5.80;99.90;;;;;;5031080;28;20404;-76
2021/12/13 09:01:28;;;;;;;;;;;5.90;99.90;;;;;;5014505;28;19905;-76
2021/12/13 09:03:54;;;;;;;;;;;5.90;99.90;;;;;;5014705;28;19912;-76
2021/12/13 09:06:23;;;;;;;;;;;6.00;99.90;;;;;;5031323;28;19916;-76
2021/12/13 09:08:58;;;;;;;;;;;5.90;99.90;;;;;;5031079;28;20093;-76
2021/12/13 09:11:31;;;;;;;;;;;5.90;99.90;;;;;;5013563;28;19908;-75
2021/12/13 09:14:12;;;;;;;;;;;5.90;99.90;;;;;;5013188;28;19906;-75
2021/12/13 09:16:46;;;;;;;;;;;5.90;99.90;;;;;;5028809;28;19917;-75
2021/12/13 09:19:18;;;;;;;;;;;5.90;99.90;;;;;;5031863;28;19920;-75
2021/12/13 09:21:53;;;;;;;;;;;5.90;99.90;;;;;;5030168;28;19912;-75
2021/12/13 09:24:27;;;;;;;;;;;5.70;99.90;;;;;;5030648;28;20510;-75
2021/12/13 09:26:56;;;;;;;;;;;5.70;99.90;;;;;;5013176;28;19920;-75
2021/12/13 09:29:22;;;;;;;;;;;5.90;99.90;;;;;;5030231;28;20047;-75
2021/12/13 09:31:50;;;;;;;;;;;6.10;99.90;;;;;;5031315;28;20015;-74
2021/12/13 09:34:18;;;;;;;;;;;6.20;99.90;;;;;;5031674;28;19905;-75
2021/12/13 09:36:45;;;;;;;;;;;6.20;99.90;;;;;;5031030;28;19905;-75
2021/12/13 09:39:17;;;;;;;;;;;6.20;99.90;;;;;;5027406;28;19948;-76
2021/12/13 09:41:47;;;;;;;;;;;6.10;99.90;;;;;;5031329;28;20091;-76
2021/12/13 09:44:14;;;;;;;;;;;6.30;99.90;;;;;;5031640;28;19998;-76
2021/12/13 09:46:51;;;;;;;;;;;6.30;99.90;;;;;;5029751;28;20388;-75
2021/12/13 09:49:26;;;;;;;;;;;6.20;99.90;;;;;;5028496;28;19951;-76
2021/12/13 09:52:12;;;;;;;;;;;6.00;99.90;;;;;;5030066;28;19938;-76
2021/12/13 09:54:41;;;;;;;;;;;6.10;99.90;;;;;;5028645;28;20490;-76
2021/12/13 09:57:19;;;;;;;;;;;6.20;99.90;;;;;;5029195;28;19905;-76
2021/12/13 09:59:46;;;;;;;;;;;6.20;99.90;;;;;;5030086;28;19912;-75
2021/12/13 10:02:16;;;;;;;;;;;6.10;99.90;;;;;;5030853;28;19920;-77
2021/12/13 10:04:43;;;;;;;;;;;6.20;99.90;;;;;;5031436;28;19948;-78
2021/12/13 10:07:10;;;;;;;;;;;6.10;99.90;;;;;;5029329;28;19952;-77
2021/12/13 10:09:39;;;;;;;;;;;6.10;99.90;;;;;;5031226;28;19912;-76
2021/12/13 10:12:08;;;;;;;;;;;6.00;99.90;;;;;;5013181;28;19971;-76
2021/12/13 10:14:36;;;;;;;;;;;5.90;99.90;;;;;;5029183;28;19996;-76
2021/12/13 10:17:04;;;;;;;;;;;6.00;99.90;;;;;;5029535;28;19909;-76
2021/12/13 10:19:35;;;;;;;;;;;6.00;99.90;;;;;;5034419;28;19945;-76
2021/12/13 10:22:02;;;;;;;;;;;5.90;99.90;;;;;;5035076;28;19905;-76
2021/12/13 10:24:30;;;;;;;;;;;5.90;99.90;;;;;;5033852;28;19962;-75
2021/12/13 10:26:57;;;;;;;;;;;6.00;99.90;;;;;;5032500;28;19916;-76
2021/12/13 10:29:25;;;;;;;;;;;6.10;99.90;;;;;;5034052;28;19906;-75
2021/12/13 10:31:53;;;;;;;;;;;6.20;99.90;;;;;;5035065;28;19905;-76
2021/12/13 10:34:27;;;;;;;;;;;6.20;99.90;;;;;;5034458;28;19912;-76
2021/12/13 10:36:59;;;;;;;;;;;6.30;99.90;;;;;;5034695;28;19956;-75
2021/12/13 10:39:30;;;;;;;;;;;6.30;99.90;;;;;;5030765;28;20423;-75
2021/12/13 10:41:57;;;;;;;;;;;6.30;99.90;;;;;;5033254;28;19905;-76
2021/12/13 10:44:27;;;;;;;;;;;6.40;99.90;;;;;;5034482;28;20514;-76
2021/12/13 10:46:55;;;;;;;;;;;6.40;99.90;;;;;;5038105;28;20016;-75
2021/12/13 10:49:24;;;;;;;;;;;6.50;99.90;;;;;;5034312;28;20028;-76
2021/12/13 10:51:55;;;;;;;;;;;6.50;99.90;;;;;;5016767;28;19913;-75
2021/12/13 10:54:24;;;;;;;;;;;6.50;99.90;;;;;;5039777;28;20420;-75
2021/12/13 10:56:58;;;;;;;;;;;6.60;99.90;;;;;;5033690;28;19905;-75
2021/12/13 10:59:25;;;;;;;;;;;6.80;99.90;;;;;;5032665;28;20016;-75
2021/12/13 11:01:53;;;;;;;;;;;6.70;99.90;;;;;;5033112;28;19912;-75
2021/12/13 11:04:22;;;;;;;;;;;6.80;99.90;;;;;;5033517;28;19906;-76
2021/12/13 11:06:48;;;;;;;;;;;6.90;99.90;;;;;;5033939;28;19909;-75
2021/12/13 11:09:16;;;;;;;;;;;6.90;99.90;;;;;;5035037;28;19905;-76
2021/12/13 11:11:55;;;;;;;;;;;7.00;99.90;;;;;;5033229;28;20359;-76
2021/12/13 11:14:21;;;;;;;;;;;7.10;99.90;;;;;;5032723;28;19913;-76
2021/12/13 11:16:50;;;;;;;;;;;7.20;99.90;;;;;;5034279;28;20367;-75
2021/12/13 11:19:19;;;;;;;;;;;7.40;99.90;;;;;;5032520;28;19940;-76
2021/12/13 11:21:46;;;;;;;;;;;7.30;99.90;;;;;;5034359;28;19905;-76
2021/12/13 11:24:19;;;;;;;;;;;7.50;99.90;;;;;;5032510;28;19913;-76
2021/12/13 11:26:46;;;;;;;;;;;7.60;99.90;;;;;;5032629;28;19916;-75
2021/12/13 11:29:14;;;;;;;;;;;7.50;99.90;;;;;;5029754;28;19905;-76
2021/12/13 11:31:52;;;;;;;;;;;7.70;99.90;;;;;;5014234;28;20313;-76
2021/12/13 11:34:18;;;;;;;;;;;7.70;99.90;;;;;;5015720;28;19948;-76
2021/12/13 11:37:03;;;;;;;;;;;7.60;99.90;;;;;;5015980;28;19940;-75
2021/12/13 11:39:45;;;;;;;;;;;7.50;99.90;;;;;;5033601;28;19912;-76
2021/12/13 11:42:14;;;;;;;;;;;7.50;99.90;;;;;;5016605;28;19916;-76
2021/12/13 11:45:03;;;;;;;;;;;7.50;99.90;;;;;;5016121;28;19927;-76
2021/12/13 11:47:44;;;;;;;;;;;7.50;99.90;;;;;;5019736;28;19909;-76
2021/12/13 11:50:25;;;;;;;;;;;7.50;99.90;;;;;;5031225;28;19912;-76
2021/12/13 11:53:10;;;;;;;;;;;7.40;99.90;;;;;;5030957;28;20387;-75
2021/12/13 11:55:58;;;;;;;;;;;7.30;99.90;;;;;;5030538;28;20268;-75
2021/12/13 11:58:42;;;;;;;;;;;7.30;99.90;;;;;;5030863;28;19905;-76
2021/12/13 12:01:08;;;;;;;;;;;7.30;99.90;;;;;;5031003;28;19909;-77
2021/12/13 12:03:52;;;;;;;;;;;7.20;99.90;;;;;;5033394;28;20410;-76
2021/12/13 12:06:36;;;;;;;;;;;7.20;99.90;;;;;;5028026;28;19996;-75
2021/12/13 12:09:20;;;;;;;;;;;7.30;99.90;;;;;;5030481;28;19998;-76
2021/12/13 12:11:50;;;;;;;;;;;7.40;99.90;;;;;;5028228;28;20010;-75
2021/12/13 12:14:23;;;;;;;;;;;7.30;99.90;;;;;;5031236;28;20428;-76
2021/12/13 12:16:50;;;;;;;;;;;7.40;99.90;;;;;;5032022;28;19905;-75
2021/12/13 12:19:18;;;;;;;;;;;7.30;99.90;;;;;;5014680;28;20002;-75
2021/12/13 12:21:49;;;;;;;;;;;7.50;99.90;;;;;;5033080;28;19905;-76
2021/12/13 12:24:21;;;;;;;;;;;7.60;99.90;;;;;;5030489;28;19909;-76
2021/12/13 12:26:50;;;;;;;;;;;7.60;99.90;;;;;;5031134;28;19909;-75
2021/12/13 12:29:18;;;;;;;;;;;7.60;99.90;;;;;;5031322;28;19919;-76
2021/12/13 12:31:46;;;;;;;;;;;7.40;99.90;;;;;;5031099;28;19909;-76
2021/12/13 12:34:12;;;;;;;;;;;7.60;99.90;;;;;;5030039;28;19963;-76
2021/12/13 12:36:38;;;;;;;;;;;7.50;99.90;;;;;;5029239;28;19920;-76
2021/12/13 12:39:06;;;;;;;;;;;7.60;99.90;;;;;;5030945;28;19996;-75
2021/12/13 12:41:45;;;;;;;;;;;7.30;99.90;;;;;;5030917;28;19905;-75
2021/12/13 12:44:22;;;;;;;;;;;7.30;99.90;;;;;;5031513;28;19912;-76
2021/12/13 12:46:48;;;;;;;;;;;7.20;99.90;;;;;;5032065;28;19959;-76
2021/12/13 12:49:16;;;;;;;;;;;7.40;99.90;;;;;;5032533;28;19912;-75
2021/12/13 12:51:42;;;;;;;;;;;7.60;99.90;;;;;;5032140;28;19912;-76
2021/12/13 12:54:10;;;;;;;;;;;7.50;99.90;;;;;;5031349;28;19939;-76
2021/12/13 12:56:39;;;;;;;;;;;7.40;99.90;;;;;;5031436;28;19963;-76
2021/12/13 12:59:09;;;;;;;;;;;7.40;99.90;;;;;;5032440;28;19905;-76
2021/12/13 13:01:58;;;;;;;;;;;7.30;99.90;;;;;;5030718;28;19912;-76
2021/12/13 13:04:24;;;;;;;;;;;7.40;99.90;;;;;;5044571;28;20004;-76
2021/12/13 13:06:52;;;;;;;;;;;7.50;99.90;;;;;;5031450;28;19999;-76
2021/12/13 13:09:18;;;;;;;;;;;7.60;99.90;;;;;;5030894;28;19999;-76
2021/12/13 13:11:48;;;;;;;;;;;7.40;99.90;;;;;;5031543;28;19948;-75
2021/12/13 13:14:16;;;;;;;;;;;7.30;99.90;;;;;;5030979;28;19920;-76
2021/12/13 13:16:52;;;;;;;;;;;7.20;99.90;;;;;;5031566;28;20560;-76
2021/12/13 13:19:32;;;;;;;;;;;7.20;99.90;;;;;;5053634;23;20366;-91
2021/12/13 13:22:01;;;;;;;;;;;7.30;99.90;;;;;;5033553;28;19908;-90
2021/12/13 13:24:27;;;;;;;;;;;7.00;99.90;;;;;;5047796;28;19977;-91
2021/12/13 13:26:52;;;;;;;;;;;6.80;99.90;;;;;;5037125;28;19913;-90
2021/12/13 13:29:19;;;;;;;;;;;6.80;99.90;;;;;;5047406;28;20034;-94
2021/12/13 13:31:51;;;;;;;;;;;6.70;99.90;;;;;;5037848;28;19940;-92
2021/12/13 13:34:22;;;;;;;;;;;6.70;99.90;;;;;;5035156;28;20460;-92
2021/12/13 13:36:50;;;;;;;;;;;6.70;99.90;;;;;;5036154;28;19963;-91
2021/12/13 13:39:18;;;;;;;;;;;6.80;99.90;;;;;;5037586;28;19904;-91
2021/12/13 13:41:45;;;;;;;;;;;6.80;99.90;;;;;;5038553;28;19905;-90
2021/12/13 13:44:12;;;;;;;;;;;6.80;99.90;;;;;;5036009;28;19912;-91
2021/12/13 13:46:39;;;;;;;;;;;6.70;99.90;;;;;;5035556;28;20357;-90
2021/12/13 13:49:05;;;;;;;;;;;6.60;99.90;;;;;;5036110;28;19912;-91
2021/12/13 13:51:33;;;;;;;;;;;6.70;99.90;;;;;;5035575;28;19905;-91
2021/12/13 13:53:59;;;;;;;;;;;6.60;99.90;;;;;;5035999;28;19915;-93
2021/12/13 13:56:31;;;;;;;;;;;6.70;99.90;;;;;;5035848;28;19911;-92
2021/12/13 13:59:43;;;;;;;;;;;6.80;99.90;;;;;;5040506;28;20389;-92
2021/12/13 14:02:43;;;;;;;;;;;6.90;99.90;;;;;;5031375;28;19995;-92
2021/12/13 14:05:18;;;;;;;;;;;7.00;99.90;;;;;;5028695;28;19905;-92
2021/12/13 14:08:12;;;;;;;;;;;7.10;99.90;;;;;;5054800;28;19909;-92
2021/12/13 14:14:24;;;;;;;;;;;6.90;99.90;;;;;;5039897;28;19954;-93
2021/12/13 14:17:00;;;;;;;;;;;6.80;99.90;;;;;;5042846;28;19913;-93
2021/12/13 14:19:30;;;;;;;;;;;6.90;99.90;;;;;;5044357;28;19962;-92
2021/12/13 14:21:56;;;;;;;;;;;6.90;99.90;;;;;;5032391;28;19912;-92
2021/12/13 14:24:36;;;;;;;;;;;6.90;99.90;;;;;;5037063;28;20294;-91
2021/12/13 14:27:11;;;;;;;;;;;7.00;99.90;;;;;;5035760;28;19959;-92
2021/12/13 14:29:37;;;;;;;;;;;7.00;99.90;;;;;;5032372;28;19957;-92
2021/12/13 14:32:07;;;;;;;;;;;7.10;99.90;;;;;;5035681;28;19912;-91
2021/12/13 14:34:34;;;;;;;;;;;7.20;99.90;;;;;;5037540;28;19909;-91
2021/12/13 14:37:04;;;;;;;;;;;7.20;99.90;;;;;;5037204;28;20381;-92
2021/12/13 14:39:33;;;;;;;;;;;7.10;99.90;;;;;;5038774;28;19908;-91
2021/12/13 14:42:05;;;;;;;;;;;7.20;99.90;;;;;;5039341;28;20019;-91
2021/12/13 14:44:50;;;;;;;;;;;7.10;99.90;;;;;;5041307;28;19970;-90
2021/12/13 14:47:18;;;;;;;;;;;7.10;99.90;;;;;;5037255;28;20580;-92
2021/12/13 14:49:54;;;;;;;;;;;7.20;99.90;;;;;;5038063;28;19905;-92
2021/12/13 14:52:31;;;;;;;;;;;7.20;99.90;;;;;;5038213;28;20353;-92
2021/12/13 15:11:44;;;;;;;;;;;6.80;99.90;;;;;;5013896;28;19932;-75
2021/12/13 15:14:11;;;;;;;;;;;7.00;99.90;;;;;;4995701;28;19909;-75
2021/12/13 15:16:38;;;;;;;;;;;7.00;99.90;;;;;;5013618;28;19956;-76
2021/12/13 15:19:06;;;;;;;;;;;6.90;99.90;;;;;;5012593;28;19909;-75
2021/12/13 15:21:36;;;;;;;;;;;7.00;99.90;;;;;;5008580;28;19910;-75
2021/12/13 15:24:02;;;;;;;;;;;7.00;99.90;;;;;;5020473;28;19906;-75
2021/12/13 15:26:33;;;;;;;;;;;7.00;99.90;;;;;;5012692;28;19921;-75
2021/12/13 15:29:01;;;;;;;;;;;7.00;99.90;;;;;;5017510;28;19916;-75